F/V Adeline Stephen — FGUF — position and weather

sailwx.info

Track history (hours):
 
Tides and Currents Weather Stations Pressure Air Temp Water Temp Dewpoint Dewpoint Depression Visibility Wind Speed Wind Dir Waves Ship Positions

F/V Adeline Stephen

Last reported at 2017-Jun-19 16:36 UTC. Time now 2017-Jun-28 20:48 UTC.
Position N 47°44' W 003°22'.
Warning: this ship's position is 9 days out of date.

Length 18 m.

Type: Fishing. MMSI: 228929000.

Date/timePositionNaut miles runAvg speedWind from/ knotsBaromVisibWave heightAir tempDewpointWater temp
2017-Jun-19 16:36N 47°44' W 003°22'0 4.3
2017-Jun-19 16:30N 47°43' W 003°22'4 7.7
2017-Jun-19 16:00N 47°41' W 003°26'5 9.1
2017-Jun-19 15:31N 47°40' W 003°33'  
2017-Jun-17 04:45N 47°37' W 005°02'1 2.4
2017-Jun-17 04:17N 47°38' W 005°02'1 2.7
2017-Jun-17 03:58N 47°39' W 005°01'1 2.9
2017-Jun-17 03:31N 47°40' W 004°60'2 2.9
2017-Jun-17 02:57N 47°41' W 004°58'22 1.1
2017-Jun-16 07:32N 47°26' W 004°34'11 0.7
2017-Jun-15 16:15N 47°24' W 004°19'4 2.9
2017-Jun-15 14:46N 47°25' W 004°25'21 2.5
2017-Jun-15 06:29N 47°34' W 004°53'2 3.1
2017-Jun-15 05:52N 47°34' W 004°56'2 3.2
2017-Jun-15 05:16N 47°35' W 004°59'2 2.6
2017-Jun-15 04:26N 47°33' W 004°58'1 3.1
2017-Jun-15 04:00N 47°31' W 004°57'2 1.5
2017-Jun-15 02:54N 47°31' W 004°55'1 3.2
2017-Jun-15 02:29N 47°31' W 004°57'1 1.4
2017-Jun-15 01:59N 47°32' W 004°58'1 2.3
2017-Jun-15 01:30N 47°33' W 004°59'1 2.8
2017-Jun-15 01:00N 47°34' W 004°60'1 2.8
2017-Jun-15 00:30N 47°35' W 005°01'1 2.3
2017-Jun-15 00:00N 47°35' W 005°03'1 2.5
2017-Jun-14 23:30N 47°34' W 005°04'1 2.4
2017-Jun-14 23:00N 47°33' W 005°05'1 2.2
2017-Jun-14 22:30N 47°32' W 005°05'1 2.4
2017-Jun-14 22:00N 47°31' W 005°05'1 2.1
2017-Jun-14 21:24N 47°30' W 005°05'59 6.7
2017-Jun-14 12:35N 47°39' W 003°39'1 9.1
2017-Jun-14 12:30N 47°39' W 003°37'4 9.0
2017-Jun-14 12:00N 47°40' W 003°31'5 9.2
2017-Jun-14 11:31N 47°41' W 003°24'3 6.1
2017-Jun-14 11:00N 47°44' W 003°22'0 0.0
2017-Jun-14 10:30N 47°44' W 003°22'0 0.0
2017-Jun-14 10:00N 47°44' W 003°22'1 1.7
2017-Jun-14 09:30N 47°43' W 003°22'4 8.3
2017-Jun-14 09:00N 47°39' W 003°20'5 9.2
2017-Jun-14 08:30N 47°35' W 003°16'5 9.1
2017-Jun-14 08:00N 47°31' W 003°12'5 9.2
2017-Jun-14 07:30N 47°28' W 003°08'4 7.3
2017-Jun-14 06:59N 47°27' W 003°03'4 9.1
2017-Jun-14 06:30N 47°26' W 002°57'5 9.5
2017-Jun-14 05:57N 47°24' W 002°49'510.6
2017-Jun-14 05:30N 47°23' W 002°43'5 8.3
2017-Jun-14 04:55N 47°21' W 002°36'3 6.6
2017-Jun-14 04:25N 47°21' W 002°31'0 0.0
2017-Jun-14 03:58N 47°21' W 002°31'0 0.0
2017-Jun-14 03:01N 47°21' W 002°31'4 8.0
2017-Jun-14 02:30N 47°20' W 002°36'5 9.5
2017-Jun-14 02:00N 47°18' W 002°43'5 9.4
2017-Jun-14 01:30N 47°17' W 002°50'5 9.3
2017-Jun-14 01:00N 47°16' W 002°57'5 9.1
2017-Jun-14 00:30N 47°15' W 003°03'6 8.8
2017-Jun-13 23:50N 47°13' W 003°12'3 8.9
2017-Jun-13 23:28N 47°13' W 003°16'62 3.3
2017-Jun-13 04:42N 46°35' W 004°27'6 5.4
2017-Jun-13 03:38N 46°38' W 004°35'3 3.7
2017-Jun-13 02:50N 46°39' W 004°39'1 2.7
2017-Jun-13 02:20N 46°40' W 004°40'64 3.0
2017-Jun-12 05:04N 47°27' W 003°36'1 9.0
2017-Jun-12 05:00N 47°27' W 003°35'4 8.7
2017-Jun-12 04:30N 47°30' W 003°31'4 8.6
2017-Jun-12 04:01N 47°33' W 003°26'4 8.5
2017-Jun-12 03:30N 47°37' W 003°23'5 9.2
2017-Jun-12 03:00N 47°42' W 003°22'2 4.4
2017-Jun-12 02:30N 47°44' W 003°22'0 0.2
2017-Jun-12 02:01N 47°44' W 003°22'0 0.0
2017-Jun-12 01:31N 47°44' W 003°22'0 0.2
2017-Jun-12 01:01N 47°44' W 003°22'0 0.0
2017-Jun-12 00:30N 47°44' W 003°22'0 0.0
2017-Jun-12 00:00N 47°44' W 003°22'0 0.0
2017-Jun-11 23:31N 47°44' W 003°22'0 0.0
2017-Jun-11 23:00N 47°44' W 003°22'0 0.0
2017-Jun-11 22:31N 47°44' W 003°22'3 6.3
2017-Jun-11 22:00N 47°41' W 003°22'4 8.7
2017-Jun-11 21:31N 47°36' W 003°23'4 8.0
2017-Jun-11 21:00N 47°33' W 003°27'4 8.7
2017-Jun-11 20:30N 47°30' W 003°31'69 3.3
2017-Jun-10 23:14N 46°40' W 004°43'10 2.1
2017-Jun-10 18:17N 46°46' W 004°30'2 8.1
2017-Jun-10 17:59N 46°47' W 004°27'24 2.2
2017-Jun-10 07:10N 46°24' W 004°22'8 1.4
2017-Jun-10 01:48N 46°30' W 004°16'2 6.9
2017-Jun-10 01:30N 46°32' W 004°17'5 7.2
2017-Jun-10 00:50N 46°36' W 004°20'3 7.2
2017-Jun-10 00:26N 46°39' W 004°22'6 7.0
2017-Jun-09 23:39N 46°44' W 004°25'1 7.0
2017-Jun-09 23:29N 46°45' W 004°26'4 7.0
2017-Jun-09 22:55N 46°48' W 004°28'  
Track history (hours):
 
Tides and Currents Weather Stations Pressure Air Temp Water Temp Dewpoint Dewpoint Depression Visibility Wind Speed Wind Dir Waves Ship Positions

F/V Adeline Stephen

Last reported at 2017-Jun-19 16:36 UTC. Time now 2017-Jun-28 20:48 UTC.
Position N 47°44' W 003°22'.
Warning: this ship's position is 9 days out of date.

Length 18 m.

Type: Fishing. MMSI: 228929000.

Date/timePositionNaut miles runAvg speedWind from/ knotsBaromVisibWave heightAir tempDewpointWater temp
2017-Jun-19 16:36N 47°44' W 003°22'0 4.3
2017-Jun-19 16:30N 47°43' W 003°22'4 7.7
2017-Jun-19 16:00N 47°41' W 003°26'5 9.1
2017-Jun-19 15:31N 47°40' W 003°33'  
2017-Jun-17 04:45N 47°37' W 005°02'1 2.4
2017-Jun-17 04:17N 47°38' W 005°02'1 2.7
2017-Jun-17 03:58N 47°39' W 005°01'1 2.9
2017-Jun-17 03:31N 47°40' W 004°60'2 2.9
2017-Jun-17 02:57N 47°41' W 004°58'22 1.1
2017-Jun-16 07:32N 47°26' W 004°34'11 0.7
2017-Jun-15 16:15N 47°24' W 004°19'4 2.9
2017-Jun-15 14:46N 47°25' W 004°25'21 2.5
2017-Jun-15 06:29N 47°34' W 004°53'2 3.1
2017-Jun-15 05:52N 47°34' W 004°56'2 3.2
2017-Jun-15 05:16N 47°35' W 004°59'2 2.6
2017-Jun-15 04:26N 47°33' W 004°58'1 3.1
2017-Jun-15 04:00N 47°31' W 004°57'2 1.5
2017-Jun-15 02:54N 47°31' W 004°55'1 3.2
2017-Jun-15 02:29N 47°31' W 004°57'1 1.4
2017-Jun-15 01:59N 47°32' W 004°58'1 2.3
2017-Jun-15 01:30N 47°33' W 004°59'1 2.8
2017-Jun-15 01:00N 47°34' W 004°60'1 2.8
2017-Jun-15 00:30N 47°35' W 005°01'1 2.3
2017-Jun-15 00:00N 47°35' W 005°03'1 2.5
2017-Jun-14 23:30N 47°34' W 005°04'1 2.4
2017-Jun-14 23:00N 47°33' W 005°05'1 2.2
2017-Jun-14 22:30N 47°32' W 005°05'1 2.4
2017-Jun-14 22:00N 47°31' W 005°05'1 2.1
2017-Jun-14 21:24N 47°30' W 005°05'59 6.7
2017-Jun-14 12:35N 47°39' W 003°39'1 9.1
2017-Jun-14 12:30N 47°39' W 003°37'4 9.0
2017-Jun-14 12:00N 47°40' W 003°31'5 9.2
2017-Jun-14 11:31N 47°41' W 003°24'3 6.1
2017-Jun-14 11:00N 47°44' W 003°22'0 0.0
2017-Jun-14 10:30N 47°44' W 003°22'0 0.0
2017-Jun-14 10:00N 47°44' W 003°22'1 1.7
2017-Jun-14 09:30N 47°43' W 003°22'4 8.3
2017-Jun-14 09:00N 47°39' W 003°20'5 9.2
2017-Jun-14 08:30N 47°35' W 003°16'5 9.1
2017-Jun-14 08:00N 47°31' W 003°12'5 9.2
2017-Jun-14 07:30N 47°28' W 003°08'4 7.3
2017-Jun-14 06:59N 47°27' W 003°03'4 9.1
2017-Jun-14 06:30N 47°26' W 002°57'5 9.5
2017-Jun-14 05:57N 47°24' W 002°49'510.6
2017-Jun-14 05:30N 47°23' W 002°43'5 8.3
2017-Jun-14 04:55N 47°21' W 002°36'3 6.6
2017-Jun-14 04:25N 47°21' W 002°31'0 0.0
2017-Jun-14 03:58N 47°21' W 002°31'0 0.0
2017-Jun-14 03:01N 47°21' W 002°31'4 8.0
2017-Jun-14 02:30N 47°20' W 002°36'5 9.5
2017-Jun-14 02:00N 47°18' W 002°43'5 9.4
2017-Jun-14 01:30N 47°17' W 002°50'5 9.3
2017-Jun-14 01:00N 47°16' W 002°57'5 9.1
2017-Jun-14 00:30N 47°15' W 003°03'6 8.8
2017-Jun-13 23:50N 47°13' W 003°12'3 8.9
2017-Jun-13 23:28N 47°13' W 003°16'62 3.3
2017-Jun-13 04:42N 46°35' W 004°27'6 5.4
2017-Jun-13 03:38N 46°38' W 004°35'3 3.7
2017-Jun-13 02:50N 46°39' W 004°39'1 2.7
2017-Jun-13 02:20N 46°40' W 004°40'64 3.0
2017-Jun-12 05:04N 47°27' W 003°36'1 9.0
2017-Jun-12 05:00N 47°27' W 003°35'4 8.7
2017-Jun-12 04:30N 47°30' W 003°31'4 8.6
2017-Jun-12 04:01N 47°33' W 003°26'4 8.5
2017-Jun-12 03:30N 47°37' W 003°23'5 9.2
2017-Jun-12 03:00N 47°42' W 003°22'2 4.4
2017-Jun-12 02:30N 47°44' W 003°22'0 0.2
2017-Jun-12 02:01N 47°44' W 003°22'0 0.0
2017-Jun-12 01:31N 47°44' W 003°22'0 0.2
2017-Jun-12 01:01N 47°44' W 003°22'0 0.0
2017-Jun-12 00:30N 47°44' W 003°22'0 0.0
2017-Jun-12 00:00N 47°44' W 003°22'0 0.0
2017-Jun-11 23:31N 47°44' W 003°22'0 0.0
2017-Jun-11 23:00N 47°44' W 003°22'0 0.0
2017-Jun-11 22:31N 47°44' W 003°22'3 6.3
2017-Jun-11 22:00N 47°41' W 003°22'4 8.7
2017-Jun-11 21:31N 47°36' W 003°23'4 8.0
2017-Jun-11 21:00N 47°33' W 003°27'4 8.7
2017-Jun-11 20:30N 47°30' W 003°31'69 3.3
2017-Jun-10 23:14N 46°40' W 004°43'10 2.1
2017-Jun-10 18:17N 46°46' W 004°30'2 8.1
2017-Jun-10 17:59N 46°47' W 004°27'24 2.2
2017-Jun-10 07:10N 46°24' W 004°22'8 1.4
2017-Jun-10 01:48N 46°30' W 004°16'2 6.9
2017-Jun-10 01:30N 46°32' W 004°17'5 7.2
2017-Jun-10 00:50N 46°36' W 004°20'3 7.2
2017-Jun-10 00:26N 46°39' W 004°22'6 7.0
2017-Jun-09 23:39N 46°44' W 004°25'1 7.0
2017-Jun-09 23:29N 46°45' W 004°26'4 7.0
2017-Jun-09 22:55N 46°48' W 004°28'  

Dump ship's entire track history